Terminal Aerodrome Forecast
Issued by NWS

Home | Current Version | Previous Version | Text Only | Print | Product List | Glossary On
Versions: 1 2 3 4 5 6 7 8 9 10 11 12 13 14 15 16 17 18
696
FTUS41 KBTV 131132
TAFMPV
TAF
KMPV 131132Z 1312/1412 32008KT 3SM -SN BR BKN025
      TEMPO 1312/1314 1SM -SN BKN015
     FM131400 31012KT P6SM BKN045=

USA.gov is the U.S. government's official web portal to all federal, state and local government web resources and services.